Time;durP1;ratioP1;P1;durP2;ratioP2;P2;SDS_P1;SDS_P2;PMS_P1;PMS_P2;Temp;Humidity;BMP_temperature;BMP_pressure;BME280_temperature;BME280_humidity;BME280_pressure;Samples;Min_cycle;Max_cycle;Signal;HPM_P1;HPM_P2
2022/11/12 00:00:33;;;;;;;17.98;5.82;;;;;;;7.48;65.44;98741.28;4865502;28;20290;-75
2022/11/12 00:02:58;;;;;;;18.80;4.40;;;;;;;7.44;65.20;98743.47;4881364;28;20194;-75
2022/11/12 00:05:24;;;;;;;5.18;2.60;;;;;;;7.40;65.67;98738.81;4851041;29;20314;-75
2022/11/12 00:07:49;;;;;;;8.63;2.90;;;;;;;7.42;65.81;98731.66;4867027;29;20218;-75
2022/11/12 00:10:15;;;;;;;13.52;3.15;;;;;;;7.34;65.61;98727.41;4867344;28;20246;-75
2022/11/12 00:12:41;;;;;;;4.80;2.88;;;;;;;7.35;65.77;98730.81;4850908;29;20234;-75
2022/11/12 00:15:07;;;;;;;3.97;2.80;;;;;;;7.42;65.11;98729.06;4866419;29;20254;-75
2022/11/12 00:17:32;;;;;;;6.22;3.25;;;;;;;7.41;64.32;98737.84;4867387;28;20301;-75
2022/11/12 00:19:57;;;;;;;6.28;3.40;;;;;;;7.39;63.77;98738.03;4867947;28;20294;-75
2022/11/12 00:22:23;;;;;;;11.40;4.72;;;;;;;7.30;63.77;98732.16;4865604;28;20266;-75
2022/11/12 00:24:48;;;;;;;11.82;5.18;;;;;;;7.26;63.94;98740.47;4868339;29;20304;-75
2022/11/12 00:27:14;;;;;;;8.90;3.75;;;;;;;7.24;64.41;98742.47;4850916;29;20645;-74
2022/11/12 00:29:39;;;;;;;7.30;2.97;;;;;;;7.19;65.56;98735.22;4865683;28;20247;-75
2022/11/12 00:32:05;;;;;;;4.18;2.55;;;;;;;7.15;64.92;98731.41;4869788;28;20290;-75
2022/11/12 00:34:31;;;;;;;3.58;2.33;;;;;;;7.17;64.64;98736.41;4867006;29;20771;-75
2022/11/12 00:36:57;;;;;;;2.20;1.63;;;;;;;7.23;64.72;98739.06;4875439;28;20292;-75
2022/11/12 00:39:23;;;;;;;2.40;1.45;;;;;;;7.21;64.45;98741.03;4882266;28;20673;-74
2022/11/12 00:41:48;;;;;;;2.40;1.30;;;;;;;7.24;64.09;98743.25;4835730;29;20278;-74
2022/11/12 00:44:14;;;;;;;3.03;2.00;;;;;;;7.26;64.53;98748.25;4866084;29;20697;-75
2022/11/12 00:46:39;;;;;;;3.05;2.00;;;;;;;7.27;64.64;98755.84;4880016;28;20285;-74
2022/11/12 00:49:04;;;;;;;1.92;1.50;;;;;;;7.29;64.96;98753.06;4881384;28;20657;-75
2022/11/12 00:51:30;;;;;;;3.38;2.25;;;;;;;7.28;64.72;98756.63;4866970;28;20191;-75
2022/11/12 00:53:55;;;;;;;4.13;2.08;;;;;;;7.29;64.58;98748.69;4864977;29;20706;-75
2022/11/12 00:56:20;;;;;;;2.60;1.90;;;;;;;7.29;64.76;98759.06;4880668;28;20278;-75
2022/11/12 00:58:46;;;;;;;2.72;2.00;;;;;;;7.34;64.67;98750.72;4866825;29;20287;-75
2022/11/12 01:01:13;;;;;;;3.28;2.58;;;;;;;7.36;65.10;98755.72;4868222;29;20323;-74
2022/11/12 01:03:41;;;;;;;1.95;1.67;;;;;;;7.31;64.65;98753.69;4863009;28;20282;-75
2022/11/12 01:06:10;;;;;;;2.50;2.00;;;;;;;7.26;64.64;98754.22;4849568;29;20650;-74
2022/11/12 01:08:35;;;;;;;2.13;1.75;;;;;;;7.29;64.68;98760.84;4853560;28;20302;-74
2022/11/12 01:11:25;;;;;;;1.67;1.25;;;;;;;7.45;64.68;98762.38;4866615;29;20255;-75
2022/11/12 01:13:55;;;;;;;1.20;1.10;;;;;;;7.36;64.76;98764.31;4844845;29;20205;-74
2022/11/12 01:16:22;;;;;;;1.75;1.40;;;;;;;7.23;64.20;98762.38;4881841;28;20560;-75
2022/11/12 01:18:52;;;;;;;1.05;0.95;;;;;;;7.31;64.97;98758.88;4865710;28;20208;-74
2022/11/12 01:21:17;;;;;;;2.00;1.10;;;;;;;7.23;64.14;98753.78;4868130;28;20211;-75
2022/11/12 01:23:43;;;;;;;1.98;1.30;;;;;;;7.17;64.55;98755.34;4867251;29;20077;-74
2022/11/12 01:26:10;;;;;;;1.40;1.10;;;;;;;7.20;64.63;98749.78;4867910;28;20271;-74
2022/11/12 01:28:36;;;;;;;1.88;1.15;;;;;;;7.15;64.60;98744.38;4850818;29;20653;-75
2022/11/12 01:31:14;;;;;;;6.43;1.75;;;;;;;7.28;65.06;98746.28;4834732;29;20165;-75
2022/11/12 01:33:41;;;;;;;6.10;1.48;;;;;;;7.10;64.92;98741.53;4867854;28;20230;-75
2022/11/12 01:36:07;;;;;;;4.72;1.30;;;;;;;7.10;65.77;98744.91;4865231;28;20683;-75
2022/11/12 01:38:37;;;;;;;5.35;1.48;;;;;;;7.12;65.42;98731.78;4866804;28;20199;-74
2022/11/12 01:41:04;;;;;;;1.58;1.00;;;;;;;7.16;65.12;98727.03;4866131;29;20205;-75
2022/11/12 01:43:29;;;;;;;2.60;1.85;;;;;;;7.14;65.27;98732.38;4866574;29;20195;-75
2022/11/12 01:45:55;;;;;;;6.65;2.05;;;;;;;7.16;64.76;98720.03;4866099;28;20209;-75
2022/11/12 01:48:27;;;;;;;3.25;1.80;;;;;;;7.24;65.00;98724.31;4865938;29;20198;-74
2022/11/12 01:50:53;;;;;;;4.25;1.83;;;;;;;7.20;64.43;98729.06;4872972;28;20299;-75
2022/11/12 01:53:20;;;;;;;3.42;2.25;;;;;;;7.15;65.15;98726.22;4870389;28;20202;-75
2022/11/12 01:55:45;;;;;;;3.38;1.67;;;;;;;7.10;64.89;98724.19;4852556;29;20180;-75
2022/11/12 01:58:14;;;;;;;3.35;1.88;;;;;;;7.23;64.80;98730.47;4867327;29;20289;-75
2022/11/12 02:00:40;;;;;;;3.20;1.70;;;;;;;7.17;64.51;98726.84;4867983;29;20416;-74
2022/11/12 02:03:14;;;;;;;1.42;0.93;;;;;;;7.21;64.60;98719.50;4883234;28;20268;-75
2022/11/12 02:05:41;;;;;;;2.03;1.53;;;;;;;7.13;65.71;98716.06;4853537;28;20217;-74
2022/11/12 02:08:09;;;;;;;1.98;1.20;;;;;;;7.15;64.53;98718.47;4884934;28;20455;-74
2022/11/12 02:10:36;;;;;;;2.42;1.48;;;;;;;7.05;64.62;98713.56;4835623;29;20200;-75
2022/11/12 02:15:45;;;;;;;3.00;1.77;;;;;;;6.91;65.13;98714.41;4871854;29;20210;-74
2022/11/12 02:18:11;;;;;;;2.67;1.70;;;;;;;6.89;65.03;98719.00;4871773;29;20618;-74
2022/11/12 02:20:37;;;;;;;2.58;1.50;;;;;;;7.02;64.90;98716.53;4867760;28;20727;-74
2022/11/12 02:23:04;;;;;;;2.20;1.15;;;;;;;7.03;64.37;98717.34;4841825;29;20206;-74
2022/11/12 02:25:29;;;;;;;2.75;1.20;;;;;;;6.92;63.92;98714.25;4885274;28;20180;-74
2022/11/12 02:27:55;;;;;;;1.90;1.30;;;;;;;6.90;64.09;98717.97;4869170;29;20274;-75
2022/11/12 02:30:41;;;;;;;1.50;1.17;;;;;;;7.01;64.37;98717.53;4869442;29;20709;-75
2022/11/12 02:33:07;;;;;;;1.58;1.05;;;;;;;6.79;64.27;98708.13;4869298;29;20215;-75
2022/11/12 02:35:32;;;;;;;1.95;0.70;;;;;;;6.84;63.79;98709.16;4871952;28;20182;-75
2022/11/12 02:37:58;;;;;;;2.65;1.10;;;;;;;6.73;63.71;98697.50;4869073;29;20289;-75
2022/11/12 02:40:24;;;;;;;1.58;1.00;;;;;;;6.68;64.03;98704.19;4853263;29;20172;-74
2022/11/12 02:42:49;;;;;;;1.42;0.80;;;;;;;6.65;63.79;98700.19;4868048;29;20346;-75
2022/11/12 02:45:15;;;;;;;2.60;1.08;;;;;;;6.65;64.39;98712.31;4868076;28;20251;-75
2022/11/12 02:47:40;;;;;;;2.03;0.90;;;;;;;6.55;63.81;98695.28;4837505;29;20635;-75
2022/11/12 02:50:06;;;;;;;2.58;1.00;;;;;;;6.55;64.26;98705.63;4849649;29;20640;-74
2022/11/12 02:52:32;;;;;;;3.42;1.83;;;;;;;6.54;63.92;98708.41;4868057;28;20199;-75
2022/11/12 02:54:57;;;;;;;3.65;1.80;;;;;;;6.52;64.91;98706.00;4871145;28;20220;-75
2022/11/12 02:57:23;;;;;;;3.03;2.13;;;;;;;6.50;63.68;98707.97;4870810;28;20278;-74
2022/11/12 02:59:48;;;;;;;2.08;1.30;;;;;;;6.40;63.85;98704.84;4868962;29;20211;-75
2022/11/12 03:02:13;;;;;;;2.97;1.63;;;;;;;6.37;64.70;98700.84;4869296;29;20214;-75
2022/11/12 03:04:39;;;;;;;2.25;1.10;;;;;;;6.36;64.74;98703.59;4867685;28;20687;-75
2022/11/12 03:07:04;;;;;;;3.42;1.38;;;;;;;6.32;65.16;98695.41;4874194;28;20227;-75
2022/11/12 03:09:29;;;;;;;2.00;1.20;;;;;;;6.34;64.78;98697.78;4868209;28;20281;-75
2022/11/12 03:11:55;;;;;;;1.75;1.10;;;;;;;6.35;64.57;98691.66;4829095;29;20222;-75
2022/11/12 03:14:20;;;;;;;1.83;1.02;;;;;;;6.29;64.73;98692.34;4869639;28;20197;-75
2022/11/12 03:16:46;;;;;;;2.67;0.90;;;;;;;6.24;65.45;98689.50;4868930;29;20329;-74
2022/11/12 03:19:11;;;;;;;4.40;1.00;;;;;;;6.23;64.94;98695.66;4868612;29;20751;-75
2022/11/12 03:21:36;;;;;;;2.65;0.70;;;;;;;6.33;64.87;98696.19;4870153;28;20231;-75
2022/11/12 03:24:02;;;;;;;1.48;0.75;;;;;;;6.39;64.90;98692.88;4870424;28;20198;-75
2022/11/12 03:26:27;;;;;;;1.38;0.77;;;;;;;6.38;64.42;98679.16;4868200;29;20211;-74
2022/11/12 03:28:52;;;;;;;2.30;0.95;;;;;;;6.36;64.94;98682.91;4868513;29;20332;-74
2022/11/12 03:31:18;;;;;;;3.05;0.88;;;;;;;6.27;64.67;98686.56;4868253;29;20265;-74
2022/11/12 03:33:43;;;;;;;1.88;1.00;;;;;;;6.28;65.94;98673.44;4852450;29;20188;-74
2022/11/12 03:36:08;;;;;;;4.22;0.95;;;;;;;6.27;65.55;98676.22;4868987;28;20187;-74
2022/11/12 03:38:34;;;;;;;1.77;1.00;;;;;;;6.27;65.42;98669.28;4868508;28;20315;-74
2022/11/12 03:40:59;;;;;;;1.92;1.00;;;;;;;6.25;65.57;98667.84;4898500;28;20266;-74
2022/11/12 03:43:24;;;;;;;1.67;1.00;;;;;;;6.23;65.40;98669.81;4884079;28;20221;-74
2022/11/12 03:45:50;;;;;;;2.30;1.10;;;;;;;6.30;64.55;98671.47;4861750;28;20373;-75
2022/11/12 03:48:15;;;;;;;2.28;1.08;;;;;;;6.34;64.86;98677.09;4867359;29;20254;-75
2022/11/12 03:50:41;;;;;;;0.98;0.60;;;;;;;6.31;64.75;98667.91;4870555;28;20335;-74
2022/11/12 03:53:06;;;;;;;2.13;0.90;;;;;;;6.18;64.42;98678.88;4870029;28;20203;-75
2022/11/12 03:55:32;;;;;;;4.68;0.70;;;;;;;6.17;64.94;98682.47;4864907;29;20274;-74
2022/11/12 03:57:58;;;;;;;1.58;0.75;;;;;;;6.16;65.62;98680.84;4867134;29;20263;-75
2022/11/12 04:00:25;;;;;;;1.00;0.70;;;;;;;6.16;64.48;98678.25;4868165;29;20646;-74
2022/11/12 04:02:51;;;;;;;1.27;0.90;;;;;;;6.25;64.62;98685.94;4867549;29;20693;-74
2022/11/12 04:08:37;;;;;;;1.38;0.60;;;;;;;6.18;63.96;98693.59;4828748;29;20249;-74
2022/11/12 04:11:04;;;;;;;1.25;0.60;;;;;;;6.17;62.96;98686.84;4814144;29;20728;-75
2022/11/12 04:13:30;;;;;;;0.63;0.50;;;;;;;5.98;63.55;98680.38;4865332;28;20374;-74
2022/11/12 04:21:55;;;;;;;1.10;1.00;;;;;;;6.12;65.85;98674.44;4879844;28;20257;-74
2022/11/12 04:27:25;;;;;;;0.70;0.60;;;;;;;6.04;64.37;98660.81;4854544;29;20659;-74
2022/11/12 04:32:38;;;;;;;0.70;0.70;;;;;;;6.00;63.27;98662.94;4854290;29;20700;-75
2022/11/12 04:35:04;;;;;;;0.75;0.57;;;;;;;5.95;63.55;98666.00;4851995;29;20698;-74
2022/11/12 04:37:43;;;;;;;0.57;0.50;;;;;;;5.92;64.11;98666.38;4865762;28;20399;-74
2022/11/12 04:45:58;;;;;;;;;;;;;;;5.92;64.37;98663.00;4866426;28;20201;-74
2022/11/12 04:48:24;;;;;;;0.93;0.82;;;;;;;5.74;64.34;98663.31;4866344;29;20097;-75
2022/11/12 04:50:54;;;;;;;1.52;0.95;;;;;;;5.80;64.79;98655.66;4870727;28;20151;-74
2022/11/12 04:53:20;;;;;;;0.82;0.68;;;;;;;5.73;65.09;98666.88;4867157;29;20208;-74
2022/11/12 04:55:49;;;;;;;2.05;1.42;;;;;;;5.76;64.11;98669.13;4866952;29;20230;-74
2022/11/12 04:58:14;;;;;;;1.30;1.02;;;;;;;5.67;64.09;98660.63;4835305;29;20219;-74
2022/11/12 05:00:39;;;;;;;1.80;1.23;;;;;;;5.68;63.36;98661.44;4882190;28;20660;-74
2022/11/12 05:03:05;;;;;;;2.10;1.45;;;;;;;5.66;63.63;98660.81;4868564;28;20202;-74
2022/11/12 05:05:30;;;;;;;1.48;1.33;;;;;;;5.59;63.93;98669.25;4865734;28;20200;-74
2022/11/12 05:07:58;;;;;;;2.08;1.60;;;;;;;5.61;64.76;98661.34;4883613;28;20304;-75
2022/11/12 05:10:24;;;;;;;1.27;0.70;;;;;;;5.52;64.55;98662.38;4850618;29;20278;-75
2022/11/12 05:12:49;;;;;;;1.20;1.00;;;;;;;5.45;64.81;98672.63;4888972;28;20273;-75
2022/11/12 05:15:14;;;;;;;2.53;1.00;;;;;;;5.47;64.44;98664.66;4866804;29;20223;-75
2022/11/12 05:17:43;;;;;;;0.90;0.75;;;;;;;5.53;64.66;98662.19;4867876;29;20206;-75
2022/11/12 05:20:12;;;;;;;0.80;0.60;;;;;;;5.58;63.98;98661.69;4882122;28;20717;-75
2022/11/12 05:22:38;;;;;;;0.63;0.40;;;;;;;5.57;63.77;98654.91;4866056;28;20219;-75
2022/11/12 05:25:04;;;;;;;2.97;0.80;;;;;;;5.56;64.40;98650.72;4882480;28;20563;-74
2022/11/12 05:27:29;;;;;;;1.80;0.60;;;;;;;5.60;64.75;98650.22;4869779;28;20211;-74
2022/11/12 05:29:55;;;;;;;3.88;1.10;;;;;;;5.56;64.92;98650.72;4854426;29;20172;-75
2022/11/12 05:32:20;;;;;;;10.85;1.20;;;;;;;5.50;66.78;98660.00;4854670;29;20267;-75
2022/11/12 05:34:45;;;;;;;5.85;1.08;;;;;;;5.52;66.19;98652.03;4860788;29;20296;-74
2022/11/12 05:37:12;;;;;;;19.05;1.98;;;;;;;5.53;65.81;98648.50;4853838;29;20688;-74
2022/11/12 05:39:37;;;;;;;31.83;4.10;;;;;;;5.55;66.26;98655.09;4870247;28;20259;-74
2022/11/12 05:42:03;;;;;;;12.98;1.55;;;;;;;5.61;66.24;98656.97;4886466;28;20293;-75
2022/11/12 05:44:29;;;;;;;13.50;1.42;;;;;;;5.60;66.98;98660.53;4854328;28;20163;-74
2022/11/12 05:46:54;;;;;;;8.55;1.30;;;;;;;5.64;66.00;98666.16;4867128;29;20254;-74
2022/11/12 05:49:20;;;;;;;10.77;1.60;;;;;;;5.61;66.34;98671.69;4854166;29;20759;-74
2022/11/12 05:51:45;;;;;;;9.63;1.20;;;;;;;5.63;66.26;98667.13;4874394;28;20206;-74
2022/11/12 05:54:11;;;;;;;13.27;1.75;;;;;;;5.69;66.38;98668.19;4871238;28;20206;-74
2022/11/12 05:56:37;;;;;;;39.22;4.70;;;;;;;5.56;67.04;98674.78;4854361;29;20282;-75
2022/11/12 05:59:06;;;;;;;17.67;2.53;;;;;;;5.58;66.47;98669.44;4869763;29;20634;-74
2022/11/12 06:01:33;;;;;;;9.85;1.50;;;;;;;5.61;66.90;98674.25;4885037;28;20210;-74
2022/11/12 06:03:58;;;;;;;43.28;3.25;;;;;;;5.53;66.34;98684.66;4868654;29;20712;-74
2022/11/12 06:06:24;;;;;;;19.10;2.30;;;;;;;5.47;66.54;98681.00;4870410;28;20248;-74
2022/11/12 06:08:49;;;;;;;21.42;2.38;;;;;;;5.50;66.83;98679.84;4855404;29;20189;-74
2022/11/12 06:11:15;;;;;;;12.95;2.72;;;;;;;5.51;66.21;98691.78;4900145;28;20289;-74
2022/11/12 06:13:40;;;;;;;12.02;2.30;;;;;;;5.54;67.14;98694.03;4865853;29;20168;-74
2022/11/12 06:16:06;;;;;;;15.18;2.67;;;;;;;5.56;66.39;98694.66;4853204;29;20282;-74
2022/11/12 06:18:31;;;;;;;10.98;1.15;;;;;;;5.54;66.27;98691.44;4853134;29;20203;-74
2022/11/12 06:21:23;;;;;;;8.40;1.85;;;;;;;5.62;66.48;98699.09;4869366;28;20182;-74
2022/11/12 06:23:56;;;;;;;8.00;1.45;;;;;;;5.68;66.20;98690.66;4868681;29;20646;-74
2022/11/12 06:26:23;;;;;;;8.13;1.65;;;;;;;5.59;66.55;98689.94;4857461;29;20163;-75
2022/11/12 06:28:49;;;;;;;19.02;1.98;;;;;;;5.54;67.27;98691.44;4879595;28;20205;-75
2022/11/12 06:31:15;;;;;;;10.27;2.13;;;;;;;5.58;65.98;98682.34;4852350;29;20409;-75
2022/11/12 06:33:41;;;;;;;2.05;1.50;;;;;;;5.59;66.13;98684.75;4868295;29;20290;-74
2022/11/12 06:36:07;;;;;;;12.55;2.13;;;;;;;5.57;66.33;98691.06;4868930;29;20585;-74
2022/11/12 06:38:34;;;;;;;16.23;3.65;;;;;;;5.66;66.46;98697.00;4868584;28;20191;-74
2022/11/12 06:41:00;;;;;;;18.80;2.80;;;;;;;5.52;66.24;98690.78;4852954;29;20318;-74
2022/11/12 06:43:27;;;;;;;19.00;3.75;;;;;;;5.42;66.86;98691.84;4853347;29;20647;-75
2022/11/12 06:45:52;;;;;;;6.70;1.60;;;;;;;5.60;66.07;98701.88;4863852;28;20250;-75
2022/11/12 06:48:18;;;;;;;2.38;1.55;;;;;;;5.61;65.13;98702.69;4853441;29;20278;-74
2022/11/12 06:50:43;;;;;;;3.67;1.60;;;;;;;5.70;65.29;98700.81;4853412;29;20172;-74
2022/11/12 06:53:08;;;;;;;3.58;1.30;;;;;;;5.71;66.14;98708.41;4853965;29;20644;-74
2022/11/12 06:55:34;;;;;;;1.80;1.40;;;;;;;5.74;66.11;98699.50;4871267;29;20199;-74
2022/11/12 06:57:59;;;;;;;4.43;1.13;;;;;;;5.77;66.80;98705.09;4838592;29;20199;-74
2022/11/12 07:00:24;;;;;;;4.88;1.30;;;;;;;5.76;65.47;98700.13;4853116;29;20191;-74
2022/11/12 07:02:50;;;;;;;2.67;1.38;;;;;;;5.81;65.73;98705.59;4853950;29;20203;-75
2022/11/12 07:05:15;;;;;;;7.95;2.15;;;;;;;5.82;66.10;98707.19;4837994;29;20696;-75
2022/11/12 07:07:41;;;;;;;6.55;1.77;;;;;;;5.81;65.45;98706.38;4884825;28;20737;-75
2022/11/12 07:10:07;;;;;;;3.78;1.65;;;;;;;5.81;66.24;98708.16;4868868;28;20237;-75
2022/11/12 07:12:32;;;;;;;15.50;3.30;;;;;;;5.81;66.84;98719.31;4853015;29;20279;-74
2022/11/12 07:14:57;;;;;;;7.32;2.13;;;;;;;5.94;66.36;98723.06;4885062;28;20778;-75
2022/11/12 07:17:23;;;;;;;14.85;2.55;;;;;;;5.92;66.78;98714.69;4868915;29;20271;-75
2022/11/12 07:19:49;;;;;;;23.90;6.90;;;;;;;5.98;66.49;98717.41;4852982;29;20642;-75
2022/11/12 07:22:14;;;;;;;13.90;7.47;;;;;;;6.07;66.69;98725.88;4853305;29;20227;-75
2022/11/12 07:24:39;;;;;;;57.92;7.38;;;;;;;5.99;66.81;98719.00;4868895;29;20260;-75
2022/11/12 07:27:04;;;;;;;58.42;8.63;;;;;;;5.87;67.29;98717.78;4868507;29;20208;-75
2022/11/12 07:29:30;;;;;;;47.13;7.95;;;;;;;5.88;67.11;98718.59;4868619;29;20125;-75
2022/11/12 07:31:55;;;;;;;32.10;5.43;;;;;;;5.89;67.24;98710.66;4868453;29;20233;-75
2022/11/12 07:34:20;;;;;;;26.73;4.93;;;;;;;6.02;67.07;98720.44;4868765;29;20211;-75
2022/11/12 07:36:47;;;;;;;4.78;4.05;;;;;;;6.18;66.72;98728.03;4852748;29;20214;-75
2022/11/12 07:39:12;;;;;;;9.13;3.08;;;;;;;6.23;66.52;98731.88;4882975;28;20397;-75
2022/11/12 07:41:38;;;;;;;2.78;1.90;;;;;;;6.39;65.75;98734.28;4865669;28;20654;-75
2022/11/12 07:44:03;;;;;;;2.35;1.80;;;;;;;6.42;65.69;98740.88;4870411;29;20769;-75
2022/11/12 07:46:29;;;;;;;6.40;1.95;;;;;;;6.43;65.42;98745.09;4847364;29;20187;-75
2022/11/12 07:48:55;;;;;;;3.35;1.40;;;;;;;6.48;65.87;98746.16;4851885;29;20115;-75
2022/11/12 07:51:25;;;;;;;1.73;1.20;;;;;;;6.62;65.82;98748.91;4852115;29;20191;-75
2022/11/12 07:53:53;;;;;;;2.28;1.80;;;;;;;6.68;65.85;98740.41;4851080;29;20201;-75
2022/11/12 07:56:20;;;;;;;9.93;7.75;;;;;;;6.69;64.90;98737.66;4851634;29;20388;-75
2022/11/12 07:58:46;;;;;;;6.38;4.47;;;;;;;6.77;65.33;98741.94;4867486;29;20194;-75
2022/11/12 08:01:32;;;;;;;6.00;4.05;;;;;;;7.03;64.09;98745.81;4883710;28;20532;-75
2022/11/12 08:03:59;;;;;;;2.30;1.40;;;;;;;6.94;64.50;98743.34;4869593;29;20674;-75
2022/11/12 08:06:25;;;;;;;2.42;1.92;;;;;;;6.97;64.01;98742.16;4874952;28;20325;-75
2022/11/12 08:08:51;;;;;;;5.90;2.20;;;;;;;7.00;64.51;98749.56;4866787;28;20664;-74
2022/11/12 08:11:17;;;;;;;2.15;1.95;;;;;;;6.99;64.28;98752.34;4881963;28;20629;-75
2022/11/12 08:13:42;;;;;;;2.75;1.60;;;;;;;6.97;64.13;98752.53;4861190;29;20332;-75
2022/11/12 08:16:08;;;;;;;1.80;1.17;;;;;;;7.01;64.49;98760.72;4867037;29;20165;-75
2022/11/12 08:18:33;;;;;;;2.75;1.30;;;;;;;6.99;64.79;98762.69;4857644;29;20195;-75
2022/11/12 08:21:02;;;;;;;3.03;1.40;;;;;;;7.07;66.41;98771.16;4867988;28;20403;-75
2022/11/12 08:23:28;;;;;;;7.07;2.13;;;;;;;7.08;66.34;98762.41;4850117;29;20680;-75
2022/11/12 08:26:03;;;;;;;3.90;1.75;;;;;;;7.39;65.42;98763.16;4882067;28;20193;-75
2022/11/12 08:28:29;;;;;;;2.63;1.73;;;;;;;7.38;65.45;98766.72;4850619;29;20194;-75
2022/11/12 08:30:55;;;;;;;2.78;1.90;;;;;;;7.43;65.18;98769.56;4885673;28;20360;-75
2022/11/12 08:33:21;;;;;;;2.22;1.83;;;;;;;7.46;65.45;98764.81;4863477;29;20464;-75
2022/11/12 08:35:46;;;;;;;2.28;1.60;;;;;;;7.55;64.88;98762.09;4889159;28;20294;-75
2022/11/12 08:38:12;;;;;;;1.65;1.40;;;;;;;7.57;64.76;98758.31;4865977;28;20190;-75
2022/11/12 08:40:38;;;;;;;11.57;3.00;;;;;;;7.52;66.04;98755.47;4882518;28;20197;-75
2022/11/12 08:43:08;;;;;;;17.52;3.65;;;;;;;7.49;66.66;98751.47;4866745;28;20644;-74
2022/11/12 08:45:35;;;;;;;77.20;6.30;;;;;;;7.37;66.81;98752.13;4876829;28;20251;-75
2022/11/12 08:48:20;;;;;;;3.13;2.40;;;;;;;7.62;66.56;98742.22;4865204;29;20189;-75
2022/11/12 08:50:46;;;;;;;8.15;3.63;;;;;;;7.64;66.70;98755.78;4886824;28;20204;-75
2022/11/12 08:53:12;;;;;;;23.95;3.92;;;;;;;7.60;67.37;98752.75;4885433;28;20152;-75
2022/11/12 08:55:38;;;;;;;67.50;5.63;;;;;;;7.56;66.83;98755.94;4878747;28;20202;-75
2022/11/12 08:58:03;;;;;;;6.32;2.00;;;;;;;7.72;66.48;98752.28;4868514;28;20210;-75
2022/11/12 09:00:40;;;;;;;26.55;3.95;;;;;;;7.91;66.40;98751.63;4850160;29;20278;-75
2022/11/12 09:03:10;;;;;;;36.58;5.10;;;;;;;7.74;67.39;98752.88;4874854;28;20194;-75
2022/11/12 09:05:36;;;;;;;37.60;4.38;;;;;;;7.76;66.81;98753.50;4865011;29;20201;-75
2022/11/12 09:08:05;;;;;;;11.90;2.60;;;;;;;7.88;66.94;98752.00;4866470;29;20210;-75
2022/11/12 09:10:30;;;;;;;4.07;2.00;;;;;;;7.93;66.15;98749.63;4865146;28;20779;-74
2022/11/12 09:12:56;;;;;;;11.93;2.20;;;;;;;8.02;66.32;98750.31;4865873;29;20515;-75
2022/11/12 09:15:23;;;;;;;3.20;1.85;;;;;;;8.09;66.27;98753.78;4879668;28;20672;-74
2022/11/12 09:18:00;;;;;;;4.07;1.92;;;;;;;8.26;65.83;98743.91;4881770;28;20203;-75
2022/11/12 09:20:27;;;;;;;24.20;3.45;;;;;;;8.17;66.07;98742.44;4865621;29;20625;-75
2022/11/12 09:22:53;;;;;;;13.93;4.30;;;;;;;7.89;66.92;98735.47;4848187;29;20186;-74
2022/11/12 09:25:19;;;;;;;6.38;2.13;;;;;;;7.95;67.39;98737.31;4879977;28;20285;-74
2022/11/12 09:27:44;;;;;;;16.48;2.90;;;;;;;8.10;66.62;98744.19;4850044;29;20199;-75
2022/11/12 09:30:10;;;;;;;42.03;5.03;;;;;;;8.10;67.42;98744.19;4897799;28;20183;-74
2022/11/12 09:32:35;;;;;;;10.05;2.42;;;;;;;8.24;67.15;98738.09;4882444;28;20173;-75
2022/11/12 09:35:00;;;;;;;5.78;2.55;;;;;;;8.34;67.21;98754.13;4862843;29;20277;-74
2022/11/12 09:37:26;;;;;;;8.77;2.03;;;;;;;8.35;66.89;98753.13;4865186;29;20625;-75
2022/11/12 09:39:51;;;;;;;6.55;1.98;;;;;;;8.47;67.08;98757.84;4881186;28;20567;-75
2022/11/12 09:42:19;;;;;;;3.22;1.98;;;;;;;8.46;67.08;98749.22;4866735;29;20248;-75
2022/11/12 09:44:54;;;;;;;5.82;2.28;;;;;;;8.70;66.71;98745.34;4847696;28;20341;-75
2022/11/12 09:47:31;;;;;;;3.22;2.42;;;;;;;8.92;65.66;98740.84;4882684;28;20173;-75
2022/11/12 09:50:16;;;;;;;3.38;2.22;;;;;;;8.99;66.11;98746.06;4850659;29;20337;-75
2022/11/12 09:52:44;;;;;;;9.52;2.80;;;;;;;8.86;66.87;98741.63;4850908;29;20422;-74
2022/11/12 09:55:30;;;;;;;2.30;1.70;;;;;;;9.21;65.72;98748.53;4835509;29;20211;-74
2022/11/12 09:57:56;;;;;;;2.20;1.80;;;;;;;9.12;65.44;98746.13;4866938;29;20582;-74
2022/11/12 10:00:21;;;;;;;3.10;2.38;;;;;;;9.16;65.29;98742.13;4863868;29;20162;-75
2022/11/12 10:02:53;;;;;;;12.20;2.80;;;;;;;9.30;65.34;98744.75;4850899;29;20708;-74
2022/11/12 10:05:22;;;;;;;12.60;2.92;;;;;;;9.27;65.75;98742.53;4834930;29;20289;-75
2022/11/12 10:08:12;;;;;;;12.32;2.80;;;;;;;9.14;65.90;98745.91;4866243;29;20227;-75
2022/11/12 10:10:37;;;;;;;5.60;2.40;;;;;;;9.26;65.48;98740.94;4835011;29;20177;-75
2022/11/12 10:13:34;;;;;;;12.85;3.25;;;;;;;9.42;65.48;98737.97;4867354;28;20332;-74
2022/11/12 10:19:03;;;;;;;4.30;2.30;;;;;;;9.43;65.45;98733.59;4864544;29;20573;-74
2022/11/12 10:21:28;;;;;;;3.10;1.88;;;;;;;9.36;65.63;98741.38;4853961;29;20300;-74
2022/11/12 10:23:53;;;;;;;19.77;3.45;;;;;;;9.32;66.20;98727.97;4869844;29;20448;-74
2022/11/12 10:26:21;;;;;;;6.55;2.30;;;;;;;9.46;65.65;98733.16;4869699;28;20286;-74
2022/11/12 10:29:12;;;;;;;4.57;1.98;;;;;;;9.62;65.61;98730.19;4869865;29;20341;-74
2022/11/12 10:31:37;;;;;;;3.10;2.50;;;;;;;9.51;65.47;98723.78;4885480;28;20305;-74
2022/11/12 10:34:12;;;;;;;21.48;4.30;;;;;;;9.61;66.03;98725.97;4867469;29;20192;-74
2022/11/12 10:36:41;;;;;;;25.35;4.63;;;;;;;9.64;65.96;98723.00;4871721;29;20577;-75
2022/11/12 10:39:06;;;;;;;4.47;2.65;;;;;;;9.65;65.46;98718.59;4867821;28;20227;-74
2022/11/12 10:41:32;;;;;;;6.35;2.65;;;;;;;9.79;65.77;98717.59;4853426;29;20611;-74
2022/11/12 10:44:03;;;;;;;13.40;3.83;;;;;;;9.79;66.23;98714.19;4868535;29;20195;-75
2022/11/12 10:46:37;;;;;;;36.47;4.45;;;;;;;9.73;66.39;98707.97;4877384;28;20223;-75
2022/11/12 10:49:22;;;;;;;25.70;4.78;;;;;;;9.80;66.79;98711.41;4868372;29;20371;-74
2022/11/12 10:51:56;;;;;;;48.50;5.70;;;;;;;9.80;67.62;98707.97;4881270;28;20289;-75
2022/11/12 10:54:48;;;;;;;69.63;8.30;;;;;;;9.98;67.12;98705.56;4868828;29;20662;-75
2022/11/12 10:57:20;;;;;;;48.58;6.38;;;;;;;9.79;67.71;98699.38;4851830;29;20653;-75
2022/11/12 10:59:46;;;;;;;7.68;3.47;;;;;;;9.92;66.61;98695.97;4852663;29;20206;-74
2022/11/12 11:02:16;;;;;;;32.22;6.60;;;;;;;9.96;67.24;98691.97;4870409;29;20350;-75
2022/11/12 11:04:42;;;;;;;44.70;6.53;;;;;;;9.91;67.94;98694.38;4884911;28;20205;-75
2022/11/12 11:07:14;;;;;;;4.90;3.13;;;;;;;10.21;67.43;98683.50;4853364;29;20293;-75
2022/11/12 11:09:51;;;;;;;11.35;4.22;;;;;;;10.29;66.82;98686.69;4864907;28;20285;-74
2022/11/12 11:12:36;;;;;;;12.88;4.50;;;;;;;10.40;67.19;98687.06;4853440;29;20274;-75
2022/11/12 11:15:14;;;;;;;22.38;4.85;;;;;;;10.42;66.59;98680.69;4852574;29;20206;-75
2022/11/12 11:17:39;;;;;;;7.55;3.63;;;;;;;10.38;66.82;98689.09;4868374;29;20180;-74
2022/11/12 11:20:21;;;;;;;7.05;4.30;;;;;;;10.53;66.81;98684.44;4868005;29;20297;-74
2022/11/12 11:22:53;;;;;;;6.32;4.10;;;;;;;10.70;66.27;98670.94;4869146;29;20293;-74
2022/11/12 11:25:26;;;;;;;5.68;3.50;;;;;;;10.78;66.65;98671.50;4868202;28;20176;-74
2022/11/12 11:28:10;;;;;;;6.50;3.88;;;;;;;10.64;67.07;98673.38;4868769;29;20279;-74
2022/11/12 11:30:43;;;;;;;5.45;3.72;;;;;;;10.82;66.30;98671.88;4870685;29;20590;-74
2022/11/12 11:33:23;;;;;;;10.52;3.90;;;;;;;10.84;66.17;98670.66;4869255;29;20170;-74
2022/11/12 11:36:12;;;;;;;8.95;5.03;;;;;;;10.93;66.13;98666.00;4868387;29;20298;-75
2022/11/12 11:38:38;;;;;;;7.22;4.72;;;;;;;10.80;66.59;98663.47;4867888;28;20112;-74
2022/11/12 11:41:14;;;;;;;5.65;3.80;;;;;;;10.77;66.51;98667.28;4879115;28;20670;-74
2022/11/12 11:43:44;;;;;;;5.30;3.92;;;;;;;10.90;66.19;98658.63;4883174;28;20629;-74
2022/11/12 11:46:09;;;;;;;5.80;3.95;;;;;;;10.92;65.72;98661.81;4886025;28;20191;-74
2022/11/12 11:48:46;;;;;;;6.57;4.65;;;;;;;10.95;65.99;98669.22;4866249;29;20292;-74
2022/11/12 11:51:36;;;;;;;7.05;4.25;;;;;;;11.18;66.33;98660.03;4883889;28;20605;-75
2022/11/12 11:54:19;;;;;;;7.32;4.47;;;;;;;11.20;66.02;98661.41;4867957;29;20688;-75
2022/11/12 11:56:44;;;;;;;8.55;4.68;;;;;;;11.03;66.78;98655.91;4867114;29;20189;-75
2022/11/12 11:59:15;;;;;;;7.55;4.88;;;;;;;11.24;66.31;98651.34;4851142;29;20250;-74
2022/11/12 12:01:59;;;;;;;6.30;4.53;;;;;;;11.20;66.56;98650.97;4869367;28;20258;-75
2022/11/12 12:04:50;;;;;;;8.25;5.00;;;;;;;11.32;66.17;98658.13;4867576;29;20642;-74
2022/11/12 12:07:24;;;;;;;6.70;4.50;;;;;;;11.37;66.04;98651.25;4851661;29;20275;-74
2022/11/12 12:10:05;;;;;;;5.78;4.30;;;;;;;11.33;65.77;98650.09;4865454;28;20238;-74